createdAt,value
2019-04-06T00:01:06.517Z,100
2019-04-06T00:06:06.657Z,100
2019-04-06T00:10:07.422Z,100
2019-04-06T00:15:08.765Z,100
2019-04-06T00:20:07.804Z,100
2019-04-06T00:25:07.026Z,100
2019-04-06T00:30:08.482Z,100
2019-04-06T00:35:07.544Z,100
2019-04-06T00:40:07.284Z,100
2019-04-06T00:44:07.854Z,100
2019-04-06T00:49:07.109Z,100
2019-04-06T00:54:07.249Z,100
2019-04-06T00:59:07.508Z,100
2019-04-06T01:04:10.526Z,100
2019-04-06T01:09:08.762Z,100
2019-04-06T01:14:08.895Z,100
2019-04-06T01:19:07.681Z,100
2019-04-06T01:23:07.154Z,100
2019-04-06T01:24:07.153Z,100
2019-04-06T01:28:07.537Z,100
2019-04-06T01:33:07.397Z,100
2019-04-06T01:38:07.678Z,100
2019-04-06T01:43:07.278Z,100
2019-04-06T01:48:07.395Z,100
2019-04-06T01:53:07.800Z,100
2019-04-06T01:57:06.979Z,100
2019-04-06T02:02:07.300Z,100
2019-04-06T02:07:07.607Z,100
2019-04-06T02:12:07.251Z,100
2019-04-06T02:17:07.706Z,100
2019-04-06T02:22:06.893Z,100
2019-04-06T02:27:07.234Z,100
2019-04-06T02:31:06.968Z,100
2019-04-06T02:36:06.538Z,100
2019-04-06T02:41:06.296Z,100
2019-04-06T02:46:06.958Z,100
2019-04-06T02:51:06.247Z,100
2019-04-06T02:56:06.593Z,100
2019-04-06T03:01:07.152Z,100
2019-04-06T03:05:07.442Z,100
2019-04-06T03:11:08.114Z,100
2019-04-06T03:15:08.403Z,100
2019-04-06T03:20:07.190Z,100
2019-04-06T03:25:06.451Z,100
2019-04-06T03:30:08.683Z,100
2019-04-06T03:35:06.763Z,100
2019-04-06T03:40:06.814Z,100
2019-04-06T03:44:08.303Z,100
2019-04-06T03:45:08.409Z,100
2019-04-06T03:49:07.145Z,100
2019-04-06T03:54:07.113Z,100
2019-04-06T03:59:06.903Z,100
2019-04-06T04:04:07.612Z,100
2019-04-06T04:09:08.393Z,100
2019-04-06T04:14:07.893Z,100
2019-04-06T04:19:07.929Z,100
2019-04-06T04:24:07.280Z,100
2019-04-06T04:28:07.621Z,100
2019-04-06T04:33:07.622Z,100
2019-04-06T04:38:07.377Z,100
2019-04-06T04:43:07.143Z,100
2019-04-06T04:48:07.191Z,100
2019-04-06T04:53:06.720Z,100
2019-04-06T04:58:06.910Z,100
2019-04-06T05:02:07.101Z,100
2019-04-06T05:07:06.484Z,100
2019-04-06T05:12:07.226Z,100
2019-04-06T05:17:07.185Z,100
2019-04-06T05:22:06.606Z,100
2019-04-06T05:27:07.040Z,100
2019-04-06T05:32:07.237Z,100
2019-04-06T05:36:07.588Z,100
2019-04-06T05:42:06.446Z,100
2019-04-06T05:46:07.641Z,100
2019-04-06T05:51:07.868Z,100
2019-04-06T05:56:07.099Z,100
2019-04-06T06:01:11.434Z,100
2019-04-06T06:06:06.852Z,100
2019-04-06T06:11:06.724Z,100
2019-04-06T06:15:09.651Z,98.75
2019-04-06T06:16:07.299Z,98.75
2019-04-06T06:21:07.092Z,98.05
2019-04-06T06:25:07.429Z,96.24
2019-04-06T06:30:08.441Z,96.01
2019-04-06T06:35:07.133Z,96.08
2019-04-06T06:40:07.723Z,96.09
2019-04-06T06:45:08.337Z,94.03
2019-04-06T06:49:07.238Z,92.67
2019-04-06T06:55:07.314Z,92.45
2019-04-06T06:59:07.028Z,88.49
2019-04-06T07:04:08.063Z,87.71
2019-04-06T07:09:07.842Z,86.09
2019-04-06T07:14:07.491Z,85.01
2019-04-06T07:19:07.519Z,83.53
2019-04-06T07:24:07.914Z,79.45
2019-04-06T07:28:06.755Z,80.61
2019-04-06T07:33:06.890Z,81.2
2019-04-06T07:38:07.392Z,78.4
2019-04-06T07:43:06.770Z,75.71
2019-04-06T07:48:07.617Z,71.81
2019-04-06T07:53:08.286Z,72.69
2019-04-06T07:58:07.576Z,74.47
2019-04-06T08:02:07.967Z,74.15
2019-04-06T08:07:07.181Z,72.75
2019-04-06T08:12:07.954Z,74.73
2019-04-06T08:17:07.257Z,76.33
2019-04-06T08:22:07.634Z,77.16
2019-04-06T08:27:07.901Z,76.65
2019-04-06T08:31:07.421Z,75.96
2019-04-06T08:36:07.597Z,74.82
2019-04-06T08:41:07.489Z,73.59
2019-04-06T08:46:07.660Z,75.06
2019-04-06T08:51:08.369Z,75.17
2019-04-06T08:56:07.913Z,74.72
2019-04-06T09:01:08.015Z,72.25
2019-04-06T09:05:07.416Z,73.49
2019-04-06T09:10:07.473Z,69.88
2019-04-06T09:15:10.043Z,69.66
2019-04-06T09:20:07.669Z,66.77
2019-04-06T09:25:07.015Z,64.44
2019-04-06T09:30:08.781Z,65.79
2019-04-06T09:35:07.264Z,65.06
2019-04-06T09:39:08.408Z,65.29
2019-04-06T09:40:07.549Z,65.29
2019-04-06T09:44:07.103Z,64.9
2019-04-06T09:49:06.937Z,67.54
2019-04-06T09:54:08.802Z,66.73
2019-04-06T09:59:07.240Z,64.29
2019-04-06T10:04:06.605Z,63.58
2019-04-06T10:09:07.835Z,62.65
2019-04-06T10:14:07.041Z,61.57
2019-04-06T10:18:07.754Z,62.32
2019-04-06T10:23:07.293Z,63.21
2019-04-06T10:28:07.539Z,58.4
2019-04-06T10:33:07.864Z,60.39
2019-04-06T10:38:07.124Z,57.03
2019-04-06T10:43:07.037Z,55.47
2019-04-06T10:48:06.605Z,50.84
2019-04-06T10:53:07.059Z,48.42
2019-04-06T10:57:07.752Z,46.41
2019-04-06T11:02:06.109Z,46.07
2019-04-06T11:07:07.949Z,47.17
2019-04-06T11:12:07.371Z,43.92
2019-04-06T11:17:07.825Z,45.11
2019-04-06T11:22:07.517Z,43.72
2019-04-06T11:26:06.588Z,44.95
2019-04-06T11:31:06.935Z,43.69
2019-04-06T11:36:06.570Z,43.92
2019-04-06T11:41:06.627Z,44.35
2019-04-06T11:46:07.230Z,44.88
2019-04-06T11:51:06.391Z,43.94
2019-04-06T11:56:06.972Z,44.7
2019-04-06T12:00:08.854Z,46.18
2019-04-06T12:05:06.479Z,45.76
2019-04-06T12:10:07.159Z,45.87
2019-04-06T12:15:08.017Z,45.65
2019-04-06T12:20:06.362Z,44.38
2019-04-06T12:25:06.621Z,44.6
2019-04-06T12:30:08.386Z,43.63
2019-04-06T12:35:07.006Z,43.71
2019-04-06T12:39:07.899Z,43.69
2019-04-06T12:44:07.853Z,43.37
2019-04-06T12:49:07.891Z,43.15
2019-04-06T12:54:07.252Z,43.14
2019-04-06T12:59:07.652Z,43.15
2019-04-06T13:04:06.970Z,43.5
2019-04-06T13:09:08.003Z,41.76
2019-04-06T13:14:06.335Z,42.5
2019-04-06T13:18:07.173Z,42.72
2019-04-06T13:19:06.458Z,42.72
2019-04-06T13:23:07.650Z,42.39
2019-04-06T13:28:07.198Z,41.5
2019-04-06T13:33:07.309Z,40.38
2019-04-06T13:38:07.732Z,41.49
2019-04-06T13:43:07.472Z,41.25
2019-04-06T13:48:08.083Z,40.6
2019-04-06T13:52:07.207Z,39.33
2019-04-06T13:57:06.422Z,38.85
2019-04-06T14:02:07.158Z,38.9
2019-04-06T14:07:08.035Z,37.64
2019-04-06T14:12:07.796Z,36.28
2019-04-06T14:17:08.707Z,36.96
2019-04-06T14:22:06.611Z,37.29
2019-04-06T14:27:07.041Z,35.94
2019-04-06T14:31:07.634Z,34.55
2019-04-06T14:36:10.559Z,33.53
2019-04-06T14:41:07.733Z,34.49
2019-04-06T14:46:07.710Z,33.08
2019-04-06T14:51:07.284Z,32.43
2019-04-06T14:56:07.873Z,33.14
2019-04-06T15:01:07.601Z,33.4
2019-04-06T15:05:06.683Z,32.17
2019-04-06T15:10:07.311Z,31.69
2019-04-06T15:15:07.870Z,31.43
2019-04-06T15:20:06.969Z,30.75
2019-04-06T15:25:07.259Z,32.1
2019-04-06T15:30:07.819Z,29.99
2019-04-06T15:34:07.810Z,30.3
2019-04-06T15:35:07.623Z,30.3
2019-04-06T15:39:08.231Z,30.25
2019-04-06T15:44:07.996Z,30.72
2019-04-06T15:49:07.204Z,31.2
2019-04-06T15:54:06.952Z,31.04
2019-04-06T15:59:07.403Z,31.27
2019-04-06T16:04:07.228Z,31.72
2019-04-06T16:08:08.382Z,31.75
2019-04-06T16:13:07.556Z,31.51
2019-04-06T16:18:07.544Z,31.92
2019-04-06T16:23:08.662Z,32.73
2019-04-06T16:28:09.080Z,32.56
2019-04-06T16:33:10.529Z,33.32
2019-04-06T16:38:08.113Z,34.23
2019-04-06T16:43:07.950Z,35.09
2019-04-06T16:47:08.158Z,35.65
2019-04-06T16:48:07.741Z,35.65
2019-04-06T16:52:08.732Z,36.51
2019-04-06T16:57:07.360Z,37.16
2019-04-06T17:02:08.186Z,37.69
2019-04-06T17:07:06.823Z,38.12
2019-04-06T17:12:07.551Z,39.06
2019-04-06T17:17:08.142Z,39.18
2019-04-06T17:21:08.638Z,39.49
2019-04-06T17:26:07.548Z,39.94
2019-04-06T17:31:07.642Z,40.31
2019-04-06T17:36:07.827Z,41.28
2019-04-06T17:41:08.280Z,41.66
2019-04-06T17:46:07.591Z,42.08
2019-04-06T17:50:07.822Z,42.2
2019-04-06T17:55:07.061Z,42.64
2019-04-06T18:00:10.170Z,42.89
2019-04-06T18:05:07.701Z,43.53
2019-04-06T18:10:06.902Z,44.26
2019-04-06T18:15:08.776Z,44.53
2019-04-06T18:20:07.636Z,44.67
2019-04-06T18:24:07.293Z,44.37
2019-04-06T18:29:08.116Z,44.5
2019-04-06T18:34:06.423Z,44.68
2019-04-06T18:39:08.651Z,44.88
2019-04-06T18:44:08.320Z,45.24
2019-04-06T18:49:07.030Z,45.64
2019-04-06T18:54:10.901Z,46.01
2019-04-06T18:58:15.273Z,45.96
2019-04-06T19:03:17.878Z,46.55
2019-04-06T19:08:07.815Z,47.18
2019-04-06T19:13:08.114Z,47.42
2019-04-06T19:18:07.252Z,47.36
2019-04-06T19:23:08.475Z,47.12
2019-04-06T19:28:08.796Z,47.04
2019-04-06T19:32:06.717Z,47.85
2019-04-06T19:33:08.746Z,47.85
2019-04-06T19:38:07.401Z,50.57
2019-04-06T19:43:08.110Z,51.78
2019-04-06T19:47:07.981Z,50.8
2019-04-06T19:52:07.673Z,50.58
2019-04-06T19:57:07.894Z,50.74
2019-04-06T20:02:08.063Z,50.62
2019-04-06T20:07:08.000Z,51.35
2019-04-06T20:12:09.463Z,52
2019-04-06T20:16:08.350Z,53.25
2019-04-06T20:21:07.606Z,53.87
2019-04-06T20:26:08.382Z,54.45
2019-04-06T20:31:08.180Z,55.24
2019-04-06T20:36:08.058Z,55.82
2019-04-06T20:41:07.776Z,56.27
2019-04-06T20:46:07.522Z,56.09
2019-04-06T20:50:07.004Z,55.92
2019-04-06T20:55:07.026Z,57.24
2019-04-06T21:00:10.109Z,57.86
2019-04-06T21:05:08.285Z,57.76
2019-04-06T21:10:08.686Z,57.68
2019-04-06T21:15:21.890Z,57.92
2019-04-06T21:19:07.064Z,57.57
2019-04-06T21:20:07.778Z,57.57
2019-04-06T21:24:07.147Z,58.01
2019-04-06T21:29:06.996Z,58.52
2019-04-06T21:34:15.960Z,59.44
2019-04-06T21:39:07.375Z,61.48
2019-04-06T21:44:07.485Z,62.42
2019-04-06T21:49:06.946Z,61.19
2019-04-06T21:54:07.079Z,60.34
2019-04-06T21:58:09.640Z,60.67
2019-04-06T22:03:07.062Z,61.18
2019-04-06T22:08:07.035Z,61.33
2019-04-06T22:13:07.294Z,60.87
2019-04-06T22:18:08.157Z,61.02
2019-04-06T22:23:08.282Z,61.52
2019-04-06T22:28:07.531Z,62.42
2019-04-06T22:33:08.050Z,63.06
2019-04-06T22:37:08.894Z,63.49
2019-04-06T22:42:08.034Z,64.19
2019-04-06T22:47:08.036Z,64.97
2019-04-06T22:52:07.861Z,65.61
2019-04-06T22:57:07.186Z,67.7
2019-04-06T23:02:09.235Z,70.45
2019-04-06T23:07:08.790Z,70.15
2019-04-06T23:11:09.344Z,68.92
2019-04-06T23:16:07.572Z,68.92
2019-04-06T23:21:08.794Z,69.82
2019-04-06T23:26:07.046Z,73.11
2019-04-06T23:31:07.401Z,75.71
2019-04-06T23:36:08.155Z,74.49
2019-04-06T23:41:07.865Z,70.55
2019-04-06T23:46:08.649Z,70.82
2019-04-06T23:51:08.264Z,71.82
2019-04-06T23:55:07.487Z,71.34
